Time;durP1;ratioP1;P1;durP2;ratioP2;P2;SDS_P1;SDS_P2;PMS_P1;PMS_P2;Temp;Humidity;BMP_temperature;BMP_pressure;BME280_temperature;BME280_humidity;BME280_pressure;Samples;Min_cycle;Max_cycle;Signal;HPM_P1;HPM_P2
2021/06/18 00:02:14;;;;;;;24.33;20.77;;;23.80;99.90;;;;;;5015237;28;20223;-83
2021/06/18 00:04:40;;;;;;;26.10;21.77;;;23.80;99.90;;;;;;5015153;28;20165;-82
2021/06/18 00:07:05;;;;;;;33.40;22.90;;;23.80;99.90;;;;;;5034775;28;20183;-82
2021/06/18 00:09:31;;;;;;;23.30;20.77;;;23.80;99.90;;;;;;5018195;28;20643;-82
2021/06/18 00:11:57;;;;;;;23.90;20.65;;;23.90;99.90;;;;;;5017036;28;20198;-82
2021/06/18 00:14:23;;;;;;;28.13;24.85;;;23.90;99.90;;;;;;5016099;28;20238;-82
2021/06/18 00:16:49;;;;;;;29.70;24.25;;;23.80;99.90;;;;;;5015886;28;20165;-81
2021/06/18 00:19:14;;;;;;;28.25;25.23;;;23.90;99.90;;;;;;5031266;28;20207;-82
2021/06/18 00:21:40;;;;;;;30.83;23.73;;;23.80;99.90;;;;;;5051088;28;20176;-82
2021/06/18 00:24:07;;;;;;;29.10;24.08;;;23.70;99.90;;;;;;5032691;28;20200;-82
2021/06/18 00:26:32;;;;;;;31.02;24.77;;;23.70;99.90;;;;;;5015686;28;20204;-82
2021/06/18 00:28:58;;;;;;;33.65;25.75;;;23.70;99.90;;;;;;5015674;28;20207;-82
2021/06/18 00:31:24;;;;;;;32.75;26.35;;;23.70;99.90;;;;;;5015507;28;20195;-82
2021/06/18 00:33:49;;;;;;;26.35;23.52;;;23.70;99.90;;;;;;5030432;28;20171;-82
2021/06/18 00:36:15;;;;;;;32.15;27.08;;;23.80;99.90;;;;;;5034131;28;20176;-82
2021/06/18 00:38:41;;;;;;;27.20;23.75;;;23.80;99.90;;;;;;5050269;28;20270;-83
2021/06/18 00:41:06;;;;;;;27.27;23.65;;;23.90;99.90;;;;;;5033175;28;20645;-83
2021/06/18 00:43:32;;;;;;;32.28;27.35;;;23.80;99.90;;;;;;5021039;28;20215;-82
2021/06/18 00:45:58;;;;;;;33.92;26.70;;;23.80;99.90;;;;;;4981671;28;20228;-82
2021/06/18 00:48:25;;;;;;;33.63;26.55;;;23.80;99.90;;;;;;4997682;28;20183;-82
2021/06/18 00:50:51;;;;;;;32.40;27.77;;;23.80;99.90;;;;;;5015400;28;20179;-82
2021/06/18 00:53:17;;;;;;;35.60;26.20;;;23.70;99.90;;;;;;5025246;28;20164;-82
2021/06/18 00:55:46;;;;;;;35.15;27.65;;;23.60;99.90;;;;;;5034932;28;20169;-83
2021/06/18 00:58:12;;;;;;;39.30;27.20;;;23.50;99.90;;;;;;5026533;28;20179;-82
2021/06/18 01:00:38;;;;;;;30.02;26.73;;;23.40;99.90;;;;;;4997384;28;20200;-82
2021/06/18 01:03:03;;;;;;;30.77;26.88;;;23.40;99.90;;;;;;5022868;28;20169;-82
2021/06/18 01:05:29;;;;;;;32.53;29.08;;;23.40;99.90;;;;;;5035080;28;20172;-83
2021/06/18 01:08:01;;;;;;;46.40;31.48;;;23.40;99.90;;;;;;5033395;28;20168;-82
2021/06/18 01:10:32;;;;;;;40.38;30.98;;;23.40;99.90;;;;;;5034709;28;20556;-82
2021/06/18 01:13:05;;;;;;;43.55;32.40;;;23.40;99.90;;;;;;5026833;28;20577;-82
2021/06/18 01:16:00;;;;;;;39.42;30.95;;;23.20;99.90;;;;;;4993812;28;20173;-83
2021/06/18 01:18:56;;;;;;;40.58;32.20;;;23.00;99.90;;;;;;4993829;28;20166;-82
2021/06/18 01:21:44;;;;;;;40.60;32.80;;;22.90;99.90;;;;;;4979728;28;20577;-82
2021/06/18 01:24:31;;;;;;;45.80;32.97;;;22.80;99.90;;;;;;5012054;28;20590;-82
2021/06/18 01:27:10;;;;;;;47.95;34.47;;;22.70;99.90;;;;;;5013337;28;20307;-82
2021/06/18 01:29:40;;;;;;;51.95;38.53;;;22.60;99.90;;;;;;5033219;28;20233;-82
2021/06/18 01:32:12;;;;;;;72.90;41.92;;;22.50;99.90;;;;;;5033828;28;20243;-84
2021/06/18 01:34:38;;;;;;;57.47;41.08;;;22.50;99.90;;;;;;4993730;28;20169;-82
2021/06/18 01:37:16;;;;;;;68.32;44.22;;;22.50;99.90;;;;;;5012904;28;20251;-80
2021/06/18 01:39:44;;;;;;;68.72;41.42;;;22.50;99.90;;;;;;5032776;28;20675;-83
2021/06/18 01:42:11;;;;;;;61.25;42.03;;;22.40;99.90;;;;;;5034534;28;20168;-82
2021/06/18 01:44:37;;;;;;;75.50;43.40;;;22.10;99.90;;;;;;5033870;28;20168;-81
2021/06/18 01:47:06;;;;;;;82.13;48.05;;;21.80;99.90;;;;;;5024683;28;20625;-80
2021/06/18 01:49:34;;;;;;;76.80;48.33;;;21.70;99.90;;;;;;5014099;28;20172;-80
2021/06/18 01:52:03;;;;;;;72.43;49.95;;;21.60;99.90;;;;;;5014939;28;20164;-79
2021/06/18 01:54:30;;;;;;;66.55;46.10;;;21.60;99.90;;;;;;5012833;28;20536;-79
2021/06/18 01:57:00;;;;;;;67.38;45.25;;;21.50;99.90;;;;;;5021281;28;20155;-81
2021/06/18 01:59:30;;;;;;;72.03;47.22;;;21.40;99.90;;;;;;5014084;28;20254;-79
2021/06/18 02:01:57;;;;;;;69.05;39.92;;;21.30;99.90;;;;;;5014090;28;20474;-80
2021/06/18 02:04:23;;;;;;;60.92;37.35;;;21.20;99.90;;;;;;5014141;28;20485;-79
2021/06/18 02:06:50;;;;;;;51.72;33.72;;;21.20;99.90;;;;;;5023031;28;20250;-79
2021/06/18 02:09:18;;;;;;;51.58;34.30;;;21.20;99.90;;;;;;5020973;28;20169;-79
2021/06/18 02:11:45;;;;;;;52.95;32.88;;;21.20;99.90;;;;;;5013697;28;20199;-80
2021/06/18 02:14:16;;;;;;;39.05;29.00;;;21.20;99.90;;;;;;5045421;28;20177;-80
2021/06/18 02:16:46;;;;;;;33.25;24.88;;;21.30;99.90;;;;;;5017697;28;20504;-81
2021/06/18 02:19:14;;;;;;;40.22;25.35;;;21.20;99.90;;;;;;5032006;28;20168;-81
2021/06/18 02:21:40;;;;;;;28.92;22.95;;;21.20;99.90;;;;;;5033510;28;20160;-82
2021/06/18 02:24:09;;;;;;;30.55;23.88;;;21.00;99.90;;;;;;5031615;28;20250;-81
2021/06/18 02:26:35;;;;;;;28.67;20.60;;;20.90;99.90;;;;;;5029238;28;20160;-83
2021/06/18 02:29:00;;;;;;;25.50;20.63;;;20.80;99.90;;;;;;5013975;28;20177;-83
2021/06/18 02:31:30;;;;;;;23.60;18.50;;;20.80;99.90;;;;;;5012785;28;20168;-82
2021/06/18 02:33:56;;;;;;;17.23;15.43;;;20.70;99.90;;;;;;5013591;28;20625;-81
2021/06/18 02:36:22;;;;;;;21.83;15.32;;;20.80;99.90;;;;;;5015490;28;20206;-82
2021/06/18 02:38:48;;;;;;;17.13;14.70;;;20.80;99.90;;;;;;5032860;28;20181;-82
2021/06/18 02:41:14;;;;;;;13.88;12.60;;;20.80;99.90;;;;;;5033257;28;20592;-82
2021/06/18 02:43:40;;;;;;;13.68;12.07;;;20.80;99.90;;;;;;5033358;28;20267;-82
2021/06/18 02:46:06;;;;;;;12.73;11.55;;;20.90;99.90;;;;;;5031245;28;20168;-82
2021/06/18 02:48:39;;;;;;;14.02;11.35;;;21.00;99.90;;;;;;5012559;28;20187;-82
2021/06/18 02:51:17;;;;;;;12.13;11.02;;;21.10;99.90;;;;;;5012279;28;20246;-82
2021/06/18 02:53:51;;;;;;;14.18;12.68;;;21.10;99.90;;;;;;5014643;28;20230;-82
2021/06/18 02:56:29;;;;;;;14.98;13.50;;;21.20;99.90;;;;;;5012959;28;20173;-82
2021/06/18 02:59:04;;;;;;;13.82;12.52;;;21.20;99.90;;;;;;5033079;28;20527;-83
2021/06/18 03:01:35;;;;;;;17.95;13.02;;;21.20;99.90;;;;;;5031036;28;20614;-83
2021/06/18 03:04:01;;;;;;;13.77;12.48;;;21.30;99.90;;;;;;5035352;28;20468;-83
2021/06/18 03:06:30;;;;;;;14.27;12.95;;;21.20;99.90;;;;;;5034213;28;20181;-82
2021/06/18 03:09:00;;;;;;;13.95;12.68;;;21.30;99.90;;;;;;5016009;28;20168;-83
2021/06/18 03:11:44;;;;;;;14.43;12.98;;;21.30;99.90;;;;;;5017108;28;20188;-83
2021/06/18 03:14:16;;;;;;;15.20;13.60;;;21.40;99.90;;;;;;5016981;28;20709;-83
2021/06/18 03:16:45;;;;;;;17.23;13.20;;;21.40;99.90;;;;;;5020405;28;20168;-83
2021/06/18 03:19:13;;;;;;;13.30;12.10;;;21.40;99.90;;;;;;5036795;28;20152;-83
2021/06/18 03:21:40;;;;;;;16.30;13.90;;;21.50;99.90;;;;;;5035552;28;20612;-83
2021/06/18 03:24:08;;;;;;;14.25;12.95;;;21.40;99.90;;;;;;5036820;28;20175;-83
2021/06/18 03:26:35;;;;;;;14.77;13.35;;;21.40;99.90;;;;;;5032944;28;20167;-83
2021/06/18 03:29:02;;;;;;;12.27;11.20;;;21.50;99.90;;;;;;4998975;28;20227;-83
2021/06/18 03:31:29;;;;;;;11.07;10.13;;;21.30;99.90;;;;;;5026674;28;20203;-83
2021/06/18 03:33:56;;;;;;;12.82;10.95;;;21.10;99.90;;;;;;5052067;28;20235;-83
2021/06/18 03:36:25;;;;;;;13.85;10.93;;;21.00;99.90;;;;;;5034738;28;20176;-83
2021/06/18 03:38:53;;;;;;;10.32;9.32;;;21.10;99.90;;;;;;5016778;28;20572;-83
2021/06/18 03:41:20;;;;;;;11.55;10.48;;;21.10;99.90;;;;;;5034805;28;20211;-83
2021/06/18 03:43:46;;;;;;;11.38;10.18;;;21.20;99.90;;;;;;5036223;28;20164;-83
2021/06/18 03:46:13;;;;;;;12.38;11.25;;;21.40;99.90;;;;;;5036089;28;20262;-83
2021/06/18 03:48:41;;;;;;;11.75;10.65;;;21.50;99.90;;;;;;5032498;28;20176;-83
2021/06/18 03:51:07;;;;;;;10.70;9.90;;;21.60;99.90;;;;;;5016275;28;20173;-84
2021/06/18 03:53:34;;;;;;;10.43;9.63;;;21.70;99.90;;;;;;5016411;28;20165;-83
2021/06/18 03:56:00;;;;;;;11.57;10.00;;;21.50;99.90;;;;;;5014763;28;20172;-83
2021/06/18 03:58:28;;;;;;;11.30;10.30;;;21.40;99.90;;;;;;5015234;28;20262;-83
2021/06/18 04:00:55;;;;;;;11.95;10.85;;;21.30;99.90;;;;;;5035955;28;20226;-83
2021/06/18 04:03:22;;;;;;;13.20;12.00;;;21.30;99.90;;;;;;5035988;28;20504;-83
2021/06/18 04:05:50;;;;;;;16.30;12.23;;;21.30;99.90;;;;;;5035995;28;20156;-82
2021/06/18 04:08:18;;;;;;;14.77;13.40;;;21.20;99.90;;;;;;5019169;28;20227;-83
2021/06/18 04:10:45;;;;;;;15.65;14.45;;;21.10;99.90;;;;;;5030594;28;20250;-82
2021/06/18 04:13:12;;;;;;;17.92;16.05;;;21.20;99.90;;;;;;5035537;28;20182;-83
2021/06/18 04:15:38;;;;;;;17.90;16.13;;;21.10;99.90;;;;;;5034140;28;20169;-82
2021/06/18 04:18:04;;;;;;;21.15;17.52;;;21.10;99.90;;;;;;5022255;28;20164;-83
2021/06/18 04:20:32;;;;;;;19.38;17.52;;;20.70;99.90;;;;;;5015822;28;20195;-83
2021/06/18 04:22:58;;;;;;;20.48;18.55;;;20.60;99.90;;;;;;5014208;28;20183;-82
2021/06/18 04:25:24;;;;;;;21.40;19.25;;;20.70;99.90;;;;;;5014491;28;20219;-82
2021/06/18 04:27:53;;;;;;;22.13;19.95;;;20.70;99.90;;;;;;5025432;28;20212;-82
2021/06/18 04:30:19;;;;;;;23.13;20.98;;;20.70;99.90;;;;;;5034223;28;20623;-82
2021/06/18 04:32:46;;;;;;;24.33;22.02;;;20.80;99.90;;;;;;5035483;28;20225;-82
2021/06/18 04:35:12;;;;;;;23.73;21.23;;;20.90;99.90;;;;;;5035467;28;20228;-82
2021/06/18 04:37:39;;;;;;;27.25;23.05;;;21.10;99.90;;;;;;5007887;28;20185;-82
2021/06/18 04:40:07;;;;;;;23.42;21.05;;;21.20;99.90;;;;;;5026284;28;20280;-82
2021/06/18 04:42:33;;;;;;;23.75;20.98;;;21.20;99.90;;;;;;5035280;28;20168;-82
2021/06/18 04:44:59;;;;;;;20.92;18.98;;;21.00;99.90;;;;;;5033165;28;20168;-82
2021/06/18 04:47:26;;;;;;;23.27;20.73;;;20.90;99.90;;;;;;5014125;28;20624;-81
2021/06/18 04:49:52;;;;;;;23.67;21.20;;;21.10;99.90;;;;;;5015257;28;20330;-83
2021/06/18 04:52:18;;;;;;;22.48;20.10;;;21.10;99.90;;;;;;5015004;28;20193;-81
2021/06/18 04:54:45;;;;;;;32.33;20.63;;;21.00;99.90;;;;;;4997438;28;20183;-81
2021/06/18 04:57:11;;;;;;;24.40;21.20;;;20.90;99.90;;;;;;5032005;28;20250;-81
2021/06/18 04:59:37;;;;;;;24.85;22.15;;;21.00;99.90;;;;;;5033678;28;20230;-81
2021/06/18 05:02:04;;;;;;;24.80;20.98;;;21.00;99.90;;;;;;5033614;28;20168;-81
2021/06/18 05:04:30;;;;;;;24.50;21.85;;;21.10;99.90;;;;;;5033388;28;20172;-82
2021/06/18 05:06:56;;;;;;;21.17;19.25;;;21.00;99.90;;;;;;5017002;28;20176;-81
2021/06/18 05:09:21;;;;;;;21.42;19.17;;;20.90;99.90;;;;;;5019012;28;20171;-81
2021/06/18 05:11:47;;;;;;;23.15;19.60;;;20.90;99.90;;;;;;5049598;28;20565;-80
2021/06/18 05:14:13;;;;;;;22.00;19.77;;;21.10;99.90;;;;;;5033068;28;20259;-81
2021/06/18 05:16:39;;;;;;;21.20;19.17;;;21.20;99.90;;;;;;5019563;28;20260;-81
2021/06/18 05:19:09;;;;;;;20.45;18.40;;;21.30;99.90;;;;;;5013247;28;20619;-81
2021/06/18 05:21:35;;;;;;;22.38;19.33;;;21.10;99.90;;;;;;5013435;28;20184;-81
2021/06/18 05:24:01;;;;;;;19.98;17.92;;;21.10;99.90;;;;;;5014800;28;20211;-80
2021/06/18 05:26:32;;;;;;;19.77;17.70;;;21.10;99.90;;;;;;5014623;28;20200;-82
2021/06/18 05:28:58;;;;;;;17.95;16.40;;;21.20;99.90;;;;;;5013294;28;20168;-80
2021/06/18 05:31:24;;;;;;;20.63;17.80;;;21.30;99.90;;;;;;5013313;28;20613;-82
2021/06/18 05:33:51;;;;;;;19.85;17.65;;;21.30;99.90;;;;;;5014189;28;20165;-81
2021/06/18 05:36:16;;;;;;;19.40;17.45;;;21.00;99.90;;;;;;5025006;28;20196;-81
2021/06/18 05:38:42;;;;;;;19.00;17.30;;;21.00;99.90;;;;;;5049221;28;20659;-81
2021/06/18 05:41:08;;;;;;;20.98;19.08;;;21.00;99.90;;;;;;4996931;28;20679;-81
2021/06/18 05:43:33;;;;;;;21.55;17.42;;;21.10;99.90;;;;;;5024398;28;20226;-80
2021/06/18 05:45:59;;;;;;;17.92;16.20;;;21.00;99.90;;;;;;5024120;28;20188;-82
2021/06/18 05:48:25;;;;;;;19.92;17.90;;;21.00;99.90;;;;;;5014098;28;20169;-82
2021/06/18 05:50:53;;;;;;;19.02;17.13;;;20.90;99.90;;;;;;5013172;28;20169;-83
2021/06/18 05:53:20;;;;;;;17.45;15.73;;;21.00;99.90;;;;;;5014276;28;20168;-81
2021/06/18 05:55:46;;;;;;;16.88;15.25;;;21.20;99.90;;;;;;5019936;28;20540;-81
2021/06/18 05:58:12;;;;;;;16.63;14.25;;;21.50;99.90;;;;;;5033797;28;20213;-81
2021/06/18 06:00:38;;;;;;;24.08;15.27;;;21.80;99.90;;;;;;5032191;28;20203;-81
2021/06/18 06:03:03;;;;;;;14.43;12.95;;;22.30;99.90;;;;;;5033566;28;20176;-81
2021/06/18 06:05:29;;;;;;;15.60;13.38;;;22.30;99.90;;;;;;5028602;28;20165;-81
2021/06/18 06:07:55;;;;;;;13.80;12.40;;;22.20;99.90;;;;;;5012946;28;20164;-80
2021/06/18 06:10:21;;;;;;;13.35;12.27;;;22.30;99.90;;;;;;5012879;28;20664;-82
2021/06/18 06:12:47;;;;;;;12.82;11.63;;;22.60;99.90;;;;;;5028820;28;20188;-80
2021/06/18 06:15:14;;;;;;;13.18;11.75;;;22.70;99.90;;;;;;5014689;28;20252;-80
2021/06/18 06:17:40;;;;;;;13.23;11.82;;;22.80;99.90;;;;;;5033041;28;20170;-81
2021/06/18 06:20:07;;;;;;;15.85;11.52;;;22.60;99.90;;;;;;5033536;28;20508;-80
2021/06/18 06:22:33;;;;;;;10.80;9.50;;;22.50;99.90;;;;;;5033754;28;20572;-80
2021/06/18 06:24:59;;;;;;;11.18;9.95;;;22.70;99.90;;;;;;5031805;28;20168;-81
2021/06/18 06:27:26;;;;;;;9.80;8.55;;;23.50;99.90;;;;;;5014069;28;20179;-80
2021/06/18 06:29:52;;;;;;;12.68;8.48;;;24.30;99.90;;;;;;5013329;28;20172;-81
2021/06/18 06:32:18;;;;;;;8.98;8.07;;;25.20;99.90;;;;;;5013482;28;20167;-81
2021/06/18 06:34:44;;;;;;;7.95;6.53;;;25.50;99.90;;;;;;5012466;28;20171;-81
2021/06/18 06:37:09;;;;;;;7.03;6.38;;;26.70;99.90;;;;;;5030657;28;20168;-80
2021/06/18 06:39:35;;;;;;;7.60;6.80;;;27.20;99.90;;;;;;5028546;28;20203;-82
2021/06/18 06:42:01;;;;;;;9.35;6.60;;;26.80;99.90;;;;;;5032914;28;20176;-82
2021/06/18 06:44:28;;;;;;;8.20;6.55;;;25.50;99.90;;;;;;5031837;28;20160;-81
2021/06/18 06:46:53;;;;;;;12.82;7.25;;;25.50;99.90;;;;;;5015318;28;20179;-83
2021/06/18 06:49:19;;;;;;;8.02;6.68;;;25.10;99.90;;;;;;5028733;28;20527;-82
2021/06/18 06:51:45;;;;;;;7.50;6.70;;;25.20;99.90;;;;;;5013558;28;20165;-81
2021/06/18 06:54:10;;;;;;;13.02;8.18;;;26.20;99.90;;;;;;5012326;28;20605;-81
2021/06/18 06:56:36;;;;;;;14.90;7.05;;;27.90;99.90;;;;;;4997963;28;20570;-81
2021/06/18 06:59:02;;;;;;;9.73;6.22;;;28.50;99.90;;;;;;5014934;28;20692;-83
2021/06/18 07:01:29;;;;;;;7.05;6.32;;;29.20;99.90;;;;;;5048318;28;20664;-81
2021/06/18 07:03:55;;;;;;;16.38;6.15;;;28.30;99.90;;;;;;5033089;28;20172;-82
2021/06/18 07:06:21;;;;;;;9.20;6.63;;;27.20;99.90;;;;;;5033139;28;20168;-81
2021/06/18 07:08:46;;;;;;;7.90;6.25;;;26.60;99.90;;;;;;5032272;28;20251;-82
2021/06/18 07:11:12;;;;;;;8.43;6.68;;;26.70;99.90;;;;;;5031149;28;20195;-82
2021/06/18 07:13:38;;;;;;;10.82;7.00;;;26.60;99.90;;;;;;5033037;28;20499;-81
2021/06/18 07:16:04;;;;;;;9.23;5.97;;;26.40;99.90;;;;;;5033143;28;20494;-80
2021/06/18 07:18:29;;;;;;;12.02;5.65;;;25.70;99.90;;;;;;5032745;28;20168;-80
2021/06/18 07:20:56;;;;;;;7.20;5.57;;;24.90;99.90;;;;;;5015535;28;20676;-81
2021/06/18 07:23:21;;;;;;;9.32;4.80;;;25.30;99.90;;;;;;5011953;28;20620;-80
2021/06/18 07:25:47;;;;;;;5.40;4.90;;;26.70;99.90;;;;;;5012021;28;20196;-80
2021/06/18 07:28:13;;;;;;;5.03;4.47;;;27.20;99.90;;;;;;5012999;28;20172;-81
2021/06/18 07:30:39;;;;;;;8.85;5.13;;;27.30;99.90;;;;;;5013090;28;20173;-80
2021/06/18 07:33:05;;;;;;;13.63;5.25;;;28.40;99.90;;;;;;5013060;28;20180;-80
2021/06/18 07:35:31;;;;;;;8.38;4.53;;;30.20;99.90;;;;;;5013164;28;20234;-82
2021/06/18 07:37:57;;;;;;;8.68;4.63;;;29.80;99.90;;;;;;5011574;28;20161;-81
2021/06/18 07:40:23;;;;;;;5.78;4.68;;;28.70;99.90;;;;;;5032483;28;20212;-79
2021/06/18 07:42:49;;;;;;;16.63;4.53;;;29.10;99.90;;;;;;5012992;28;20177;-80
2021/06/18 07:45:16;;;;;;;4.93;4.43;;;29.30;99.90;;;;;;5012814;28;20530;-80
2021/06/18 07:47:42;;;;;;;7.15;4.47;;;29.40;99.90;;;;;;5011402;28;20204;-80
2021/06/18 07:50:14;;;;;;;7.25;4.30;;;29.30;99.90;;;;;;5014966;28;20517;-79
2021/06/18 07:52:40;;;;;;;5.88;4.20;;;28.80;99.90;;;;;;5016287;28;20169;-79
2021/06/18 07:55:08;;;;;;;6.70;4.13;;;29.30;99.90;;;;;;5016294;28;20165;-80
2021/06/18 07:57:34;;;;;;;8.25;4.65;;;29.80;99.90;;;;;;5017121;28;20164;-80
2021/06/18 08:00:00;;;;;;;10.23;4.80;;;31.30;99.90;;;;;;5015078;28;20207;-81
2021/06/18 08:02:26;;;;;;;12.50;4.40;;;33.20;99.90;;;;;;5016521;28;20191;-80
2021/06/18 08:04:52;;;;;;;6.57;4.07;;;35.10;99.90;;;;;;5014706;28;20177;-80
2021/06/18 08:07:18;;;;;;;11.55;4.22;;;34.90;99.90;;;;;;5016059;28;20187;-79
2021/06/18 08:09:45;;;;;;;10.27;4.90;;;33.60;99.90;;;;;;5029212;28;20186;-81
2021/06/18 08:12:11;;;;;;;9.93;4.05;;;33.70;99.90;;;;;;5023634;28;20537;-81
2021/06/18 08:14:36;;;;;;;7.82;4.00;;;33.50;99.90;;;;;;5051293;28;20164;-83
2021/06/18 08:17:03;;;;;;;10.93;3.70;;;34.50;99.90;;;;;;5032596;28;20688;-82
2021/06/18 08:19:28;;;;;;;5.70;4.30;;;36.00;99.90;;;;;;5031770;28;20251;-81
2021/06/18 08:21:54;;;;;;;5.50;3.97;;;36.90;99.90;;;;;;5014569;28;20263;-83
2021/06/18 08:24:19;;;;;;;6.38;3.90;;;36.40;99.90;;;;;;5014850;28;20238;-82
2021/06/18 08:26:45;;;;;;;9.85;3.88;;;37.70;99.90;;;;;;5035765;28;20168;-82
2021/06/18 08:29:11;;;;;;;8.20;4.13;;;38.90;99.90;;;;;;5034348;28;20688;-82
2021/06/18 08:31:37;;;;;;;13.27;3.65;;;39.10;99.90;;;;;;5051052;28;20199;-83
2021/06/18 08:34:02;;;;;;;7.70;3.38;;;39.40;99.90;;;;;;5034329;28;20171;-82
2021/06/18 08:36:28;;;;;;;7.95;3.38;;;38.40;99.90;;;;;;5032651;28;20556;-81
2021/06/18 08:38:54;;;;;;;13.68;4.20;;;37.70;99.90;;;;;;5021657;28;20194;-82
2021/06/18 08:41:20;;;;;;;5.82;3.72;;;38.00;99.90;;;;;;5050525;28;20203;-80
2021/06/18 08:43:48;;;;;;;6.93;3.63;;;37.50;99.90;;;;;;5034434;28;20175;-81
2021/06/18 08:46:14;;;;;;;6.68;3.95;;;37.80;99.90;;;;;;5034621;28;20163;-81
2021/06/18 08:48:40;;;;;;;9.05;3.38;;;36.50;99.90;;;;;;5033799;28;20179;-82
2021/06/18 08:51:06;;;;;;;8.38;3.50;;;36.40;99.90;;;;;;5032947;28;20199;-83
2021/06/18 08:53:36;;;;;;;8.65;3.67;;;38.60;99.90;;;;;;5015290;28;20203;-80
2021/06/18 08:56:05;;;;;;;7.85;3.38;;;39.60;99.90;;;;;;5013915;28;20256;-80
2021/06/18 08:58:31;;;;;;;9.77;3.10;;;39.80;99.40;;;;;;5033917;28;20178;-81
2021/06/18 09:00:57;;;;;;;7.40;3.42;;;39.60;99.50;;;;;;5033716;28;20211;-80
2021/06/18 09:03:41;;;;;;;6.30;2.90;;;40.10;97.90;;;;;;5034975;28;20603;-83
2021/06/18 09:06:29;;;;;;;10.18;2.83;;;41.10;97.50;;;;;;5034877;28;20194;-81
2021/06/18 09:09:12;;;;;;;8.23;2.83;;;40.90;97.10;;;;;;4995614;28;20272;-81
2021/06/18 09:11:59;;;;;;;4.60;3.15;;;42.40;95.80;;;;;;5018614;28;20215;-80
2021/06/18 09:14:36;;;;;;;9.77;2.95;;;43.20;94.20;;;;;;5034530;28;20175;-81
2021/06/18 09:17:17;;;;;;;9.88;3.00;;;43.10;92.20;;;;;;5027904;28;20175;-81
2021/06/18 09:20:03;;;;;;;4.85;3.03;;;43.00;91.20;;;;;;5015039;28;20227;-80
2021/06/18 09:22:37;;;;;;;11.80;2.83;;;42.50;91.90;;;;;;5029968;28;20179;-80
2021/06/18 09:25:11;;;;;;;10.63;2.42;;;42.60;92.60;;;;;;5013381;28;20226;-80
2021/06/18 09:27:39;;;;;;;11.00;2.50;;;44.10;90.90;;;;;;5027498;28;20167;-82
2021/06/18 09:30:17;;;;;;;9.00;2.40;;;45.10;88.50;;;;;;5032741;28;20175;-80
2021/06/18 09:32:55;;;;;;;12.68;3.33;;;44.30;88.10;;;;;;5049636;28;20225;-81
2021/06/18 09:35:20;;;;;;;7.65;2.38;;;44.00;84.70;;;;;;5034206;28;20261;-84
2021/06/18 09:37:56;;;;;;;5.68;2.65;;;44.10;87.10;;;;;;5030380;28;20632;-84
2021/06/18 09:40:24;;;;;;;8.95;2.58;;;44.20;86.10;;;;;;5034120;28;20207;-82
2021/06/18 09:42:58;;;;;;;8.38;2.33;;;44.20;84.70;;;;;;5032574;28;20174;-82
2021/06/18 09:45:35;;;;;;;5.28;2.95;;;43.70;85.90;;;;;;5033794;28;20620;-82
2021/06/18 09:48:13;;;;;;;11.10;2.45;;;43.60;86.60;;;;;;5013452;28;20179;-83
2021/06/18 09:50:41;;;;;;;6.25;2.50;;;44.10;83.70;;;;;;5046512;28;20758;-83
2021/06/18 09:53:10;;;;;;;8.75;2.10;;;43.40;83.50;;;;;;5034006;28;20217;-83
2021/06/18 09:55:36;;;;;;;10.05;2.40;;;43.20;85.60;;;;;;5033876;28;20159;-85
2021/06/18 09:58:02;;;;;;;10.07;2.70;;;42.50;83.50;;;;;;5013015;28;20172;-82
2021/06/18 10:00:28;;;;;;;7.38;2.40;;;41.70;87.30;;;;;;5012484;28;20207;-82
2021/06/18 10:02:55;;;;;;;9.82;2.25;;;42.00;88.10;;;;;;5013907;28;20187;-83
2021/06/18 10:05:22;;;;;;;8.40;2.80;;;42.60;85.80;;;;;;5013799;28;20168;-82
2021/06/18 10:07:51;;;;;;;3.53;2.20;;;42.80;86.00;;;;;;5016554;28;20292;-82
2021/06/18 10:10:19;;;;;;;7.32;2.58;;;42.60;85.50;;;;;;5013674;28;20203;-82
2021/06/18 10:12:45;;;;;;;5.68;2.33;;;42.80;84.30;;;;;;5011218;28;20243;-82
2021/06/18 10:15:14;;;;;;;5.75;2.15;;;43.20;85.80;;;;;;5013620;28;20200;-83
2021/06/18 10:17:42;;;;;;;6.88;2.13;;;43.30;81.30;;;;;;5014022;28;20613;-84
2021/06/18 10:20:19;;;;;;;7.95;2.75;;;43.30;83.50;;;;;;5013384;28;20242;-83
2021/06/18 10:23:04;;;;;;;9.88;2.88;;;43.10;82.00;;;;;;5013769;28;20164;-83
2021/06/18 10:25:37;;;;;;;6.03;2.58;;;43.30;82.70;;;;;;5013400;28;20251;-83
2021/06/18 10:28:06;;;;;;;14.63;2.58;;;43.40;83.30;;;;;;5031217;28;20171;-82
2021/06/18 10:30:46;;;;;;;7.28;2.15;;;43.70;83.20;;;;;;5033374;28;20221;-83
2021/06/18 10:33:27;;;;;;;7.32;2.20;;;43.40;80.80;;;;;;5033399;28;20691;-82
2021/06/18 10:36:04;;;;;;;7.80;2.20;;;42.50;81.70;;;;;;5047909;28;20168;-83
2021/06/18 10:38:41;;;;;;;9.25;2.47;;;41.50;82.50;;;;;;5031022;28;20159;-83
2021/06/18 10:41:13;;;;;;;8.25;2.53;;;42.00;84.60;;;;;;5033095;28;20209;-82
2021/06/18 10:43:41;;;;;;;4.38;2.40;;;41.10;81.50;;;;;;5048444;28;20688;-82
2021/06/18 10:46:08;;;;;;;9.70;2.30;;;40.70;82.10;;;;;;5031674;28;20164;-80
2021/06/18 10:48:53;;;;;;;2.65;2.17;;;40.80;85.50;;;;;;5007035;28;20172;-77
2021/06/18 10:51:37;;;;;;;3.95;2.20;;;41.10;85.90;;;;;;5013233;28;20176;-78
2021/06/18 10:54:17;;;;;;;9.20;2.10;;;41.20;84.90;;;;;;5011962;28;20164;-77
2021/06/18 10:56:45;;;;;;;3.00;2.10;;;39.60;85.70;;;;;;5018334;28;20164;-77
2021/06/18 10:59:25;;;;;;;10.18;2.40;;;39.00;88.60;;;;;;5048403;28;20190;-77
2021/06/18 11:01:51;;;;;;;5.30;2.20;;;39.90;87.70;;;;;;5032861;28;20175;-77
2021/06/18 11:04:34;;;;;;;6.68;2.15;;;41.00;86.20;;;;;;5020802;28;20639;-78
2021/06/18 11:07:00;;;;;;;7.75;2.17;;;41.20;85.00;;;;;;5021254;28;20168;-78
2021/06/18 11:09:46;;;;;;;5.35;2.35;;;40.90;83.90;;;;;;5033170;28;20225;-78
2021/06/18 11:12:24;;;;;;;7.70;2.33;;;40.50;81.60;;;;;;5032560;28;20180;-78
2021/06/18 11:14:53;;;;;;;6.18;2.55;;;40.60;81.80;;;;;;5018241;28;20234;-81
2021/06/18 11:17:40;;;;;;;6.57;2.38;;;40.10;81.40;;;;;;5028495;28;20164;-82
2021/06/18 11:20:08;;;;;;;6.45;2.35;;;39.90;82.20;;;;;;5013126;28;20191;-83
2021/06/18 11:22:52;;;;;;;5.50;2.70;;;40.10;83.00;;;;;;5012026;28;20180;-82
2021/06/18 11:25:39;;;;;;;7.60;2.30;;;41.10;80.80;;;;;;5033092;28;20172;-84
2021/06/18 11:28:32;;;;;;;3.90;2.13;;;40.80;82.10;;;;;;5036767;28;20163;-84
2021/06/18 11:31:12;;;;;;;4.78;2.30;;;40.20;80.60;;;;;;5051938;28;20179;-84
2021/06/18 11:36:35;;;;;;;4.68;2.33;;;39.40;80.30;;;;;;5016642;28;20180;-85
2021/06/18 11:39:07;;;;;;;6.97;1.95;;;39.10;82.20;;;;;;5012036;28;20223;-84
2021/06/18 11:41:42;;;;;;;5.03;2.22;;;39.50;84.00;;;;;;5028340;28;20220;-85
2021/06/18 11:44:11;;;;;;;3.47;2.40;;;38.90;81.70;;;;;;5012453;28;20220;-83
2021/06/18 11:46:37;;;;;;;4.97;2.22;;;39.30;86.10;;;;;;5036308;28;20160;-85
2021/06/18 11:49:10;;;;;;;3.83;2.15;;;39.50;81.50;;;;;;5051700;28;20163;-84
2021/06/18 11:51:36;;;;;;;5.88;2.50;;;39.50;83.80;;;;;;5051363;28;20182;-84
2021/06/18 11:54:02;;;;;;;6.75;2.30;;;39.60;81.60;;;;;;5051138;28;20175;-84
2021/06/18 11:56:33;;;;;;;4.47;2.33;;;39.50;83.30;;;;;;5036102;28;20190;-81
2021/06/18 11:58:59;;;;;;;5.50;2.28;;;39.30;84.30;;;;;;5020092;28;20255;-84
2021/06/18 12:01:31;;;;;;;5.32;2.72;;;38.00;86.10;;;;;;5016058;28;20254;-83
2021/06/18 12:03:59;;;;;;;5.68;1.95;;;38.30;87.10;;;;;;5048600;28;20168;-84
2021/06/18 12:06:26;;;;;;;7.13;1.95;;;38.90;86.40;;;;;;5051390;28;20159;-83
2021/06/18 12:09:01;;;;;;;5.15;2.25;;;38.90;82.90;;;;;;5027892;28;20282;-82
2021/06/18 12:11:51;;;;;;;6.40;2.50;;;38.70;84.10;;;;;;5015957;28;20230;-83
2021/06/18 12:14:17;;;;;;;6.13;2.70;;;38.80;85.50;;;;;;5013992;28;20238;-84
2021/06/18 12:16:45;;;;;;;8.75;2.55;;;38.50;86.00;;;;;;5015105;28;20180;-83
2021/06/18 12:19:23;;;;;;;4.47;2.33;;;38.50;87.80;;;;;;5015690;28;20256;-83
2021/06/18 12:22:02;;;;;;;4.32;2.20;;;37.70;88.40;;;;;;5015869;28;20551;-83
2021/06/18 12:24:34;;;;;;;5.53;2.70;;;36.40;90.70;;;;;;5024853;28;20636;-81
2021/06/18 12:27:01;;;;;;;10.82;2.33;;;35.60;90.90;;;;;;5018303;28;20640;-84
2021/06/18 12:29:28;;;;;;;7.68;2.60;;;34.70;91.40;;;;;;5015005;28;20528;-88
2021/06/18 12:31:55;;;;;;;9.48;2.53;;;33.60;92.40;;;;;;5015442;28;20160;-83
2021/06/18 12:34:21;;;;;;;10.43;3.45;;;33.10;93.20;;;;;;5015001;28;20164;-84
2021/06/18 12:36:58;;;;;;;4.45;2.63;;;33.00;93.70;;;;;;5012980;28;20252;-83
2021/06/18 12:39:24;;;;;;;9.13;2.67;;;32.70;94.70;;;;;;5015981;28;20223;-83
2021/06/18 12:41:50;;;;;;;8.70;2.55;;;32.60;93.80;;;;;;4997230;28;20672;-83
2021/06/18 12:44:15;;;;;;;6.03;2.92;;;32.80;95.50;;;;;;5015284;28;20176;-82
2021/06/18 12:46:54;;;;;;;9.40;3.05;;;33.00;95.90;;;;;;5015039;28;20171;-85
2021/06/18 12:49:27;;;;;;;3.50;2.80;;;33.10;96.20;;;;;;5013410;28;20194;-84